Time;durP1;ratioP1;P1;durP2;ratioP2;P2;SDS_P1;SDS_P2;PMS_P1;PMS_P2;Temp;Humidity;BMP_temperature;BMP_pressure;BME280_temperature;BME280_humidity;BME280_pressure;Samples;Min_cycle;Max_cycle;Signal;HPM_P1;HPM_P2
2022/06/03 00:01:38;;;;;;;3.60;2.22;;;;;;;11.68;68.56;99605.97;5046157;28;20032;-54
2022/06/03 00:04:49;;;;;;;3.40;2.50;;;;;;;11.84;67.52;99601.72;5048283;28;20655;-53
2022/06/03 00:07:39;;;;;;;4.13;2.60;;;;;;;11.70;69.55;99587.75;4967393;28;20459;-55
2022/06/03 00:10:19;;;;;;;4.20;2.65;;;;;;;11.77;67.83;99593.00;5062055;28;20039;-56
2022/06/03 00:12:54;;;;;;;5.13;2.70;;;;;;;11.89;67.23;99592.97;5034475;28;20454;-56
2022/06/03 00:15:41;;;;;;;5.60;2.30;;;;;;;12.07;65.44;99595.41;5048463;28;20040;-54
2022/06/03 00:18:25;;;;;;;6.32;2.30;;;;;;;12.11;68.33;99596.56;5037338;28;20032;-55
2022/06/03 00:21:07;;;;;;;6.38;2.20;;;;;;;11.99;66.87;99595.81;5046458;28;20041;-55
2022/06/03 00:24:01;;;;;;;6.15;2.70;;;;;;;11.73;69.81;99589.16;5035201;28;20115;-55
2022/06/03 00:26:57;;;;;;;6.38;2.42;;;;;;;11.63;70.06;99582.56;5038822;28;20025;-55
2022/06/03 00:29:32;;;;;;;4.10;2.30;;;;;;;11.56;69.37;99584.56;5037413;28;20032;-55
2022/06/03 00:32:09;;;;;;;3.22;2.50;;;;;;;11.68;68.92;99584.50;5058981;28;20572;-55
2022/06/03 00:35:10;;;;;;;5.00;2.60;;;;;;;11.42;70.47;99585.91;5049187;28;20439;-55
2022/06/03 00:37:55;;;;;;;4.53;2.60;;;;;;;11.31;71.07;99584.91;5047485;28;20072;-55
2022/06/03 00:40:58;;;;;;;3.38;2.20;;;;;;;11.54;68.90;99581.31;5037519;28;20040;-55
2022/06/03 00:43:50;;;;;;;3.33;2.20;;;;;;;11.76;68.04;99586.81;5043294;28;20029;-55
2022/06/03 00:46:53;;;;;;;4.10;2.30;;;;;;;11.87;66.90;99582.44;5031166;28;20025;-56
2022/06/03 00:49:49;;;;;;;7.07;2.63;;;;;;;11.92;67.78;99576.38;5048657;28;20025;-54
2022/06/03 00:52:47;;;;;;;5.55;2.55;;;;;;;11.76;67.06;99584.13;5058513;28;20028;-55
2022/06/03 00:55:37;;;;;;;3.47;2.30;;;;;;;11.86;66.75;99570.06;5024334;28;20065;-55
2022/06/03 00:58:27;;;;;;;3.75;2.25;;;;;;;11.81;66.83;99576.16;5048561;28;20039;-56
2022/06/03 01:01:03;;;;;;;4.65;2.28;;;;;;;11.60;67.98;99576.84;5049483;28;20037;-56
2022/06/03 01:04:02;;;;;;;5.45;2.20;;;;;;;11.45;68.71;99567.44;5051515;28;20423;-56
2022/06/03 01:06:37;;;;;;;3.67;2.35;;;;;;;11.42;67.91;99559.88;5051009;28;20040;-56
2022/06/03 01:09:40;;;;;;;3.28;2.13;;;;;;;11.69;66.70;99569.22;5054528;28;20040;-55
2022/06/03 01:12:06;;;;;;;6.40;2.70;;;;;;;11.45;68.55;99564.75;5067079;28;20040;-56
2022/06/03 01:14:50;;;;;;;4.97;2.50;;;;;;;11.19;70.50;99574.19;5066559;28;20040;-55
2022/06/03 01:17:33;;;;;;;3.83;2.50;;;;;;;11.30;69.64;99572.50;5063717;28;20032;-56
2022/06/03 01:20:22;;;;;;;6.47;2.80;;;;;;;11.14;71.01;99567.91;5050863;28;20103;-54
2022/06/03 01:22:56;;;;;;;4.53;2.50;;;;;;;10.97;71.65;99571.31;5063067;28;20033;-55
2022/06/03 01:26:00;;;;;;;5.60;2.70;;;;;;;10.78;72.58;99575.19;5067777;28;20455;-54
2022/06/03 01:28:55;;;;;;;5.47;2.45;;;;;;;10.63;73.14;99575.69;5063818;28;20507;-53
2022/06/03 01:31:58;;;;;;;6.28;3.08;;;;;;;10.88;71.96;99574.59;5065442;28;20032;-53
2022/06/03 01:34:23;;;;;;;4.68;3.00;;;;;;;10.97;72.03;99579.38;5066216;28;20195;-56
2022/06/03 01:37:10;;;;;;;3.17;2.40;;;;;;;10.79;72.62;99583.03;5067094;28;20131;-56
2022/06/03 01:39:38;;;;;;;4.40;2.35;;;;;;;10.82;72.46;99576.38;5038555;28;20744;-56
2022/06/03 01:42:41;;;;;;;4.55;2.55;;;;;;;10.96;71.55;99577.75;5066298;28;20024;-56
2022/06/03 01:45:33;;;;;;;3.60;2.42;;;;;;;10.75;71.61;99578.34;5065053;28;20383;-55
2022/06/03 01:48:16;;;;;;;4.43;2.63;;;;;;;10.73;72.28;99572.41;5042262;28;20115;-56
2022/06/03 01:50:54;;;;;;;6.60;2.47;;;;;;;10.61;72.88;99574.28;5053498;28;20028;-55
2022/06/03 01:53:25;;;;;;;3.30;2.50;;;;;;;10.56;73.32;99566.97;5066891;28;20029;-55
2022/06/03 01:56:05;;;;;;;4.55;2.60;;;;;;;10.63;73.06;99561.47;5050882;28;20025;-55
2022/06/03 01:58:37;;;;;;;;;;;;;;;10.86;73.98;99563.28;5068604;28;20432;-53
2022/06/03 02:01:23;;;;;;;5.10;2.67;;;;;;;10.53;74.11;99567.41;5067527;28;20141;-55
2022/06/03 02:04:13;;;;;;;6.65;3.15;;;;;;;10.61;72.51;99552.84;5061249;28;20089;-56
2022/06/03 02:07:13;;;;;;;3.70;2.50;;;;;;;10.43;73.83;99551.09;5062689;28;20131;-56
2022/06/03 02:09:47;;;;;;;4.05;3.15;;;;;;;10.59;73.16;99555.78;5037025;28;20094;-56
2022/06/03 02:12:25;;;;;;;4.05;2.67;;;;;;;10.47;73.68;99550.41;5047488;28;20471;-56
2022/06/03 02:15:33;;;;;;;4.63;2.78;;;;;;;10.25;74.80;99554.69;5066649;28;20051;-55
2022/06/03 02:18:09;;;;;;;4.32;2.67;;;;;;;10.32;74.54;99542.03;5035165;28;20074;-55
2022/06/03 02:20:53;;;;;;;5.25;2.70;;;;;;;10.17;74.48;99542.47;5060118;28;20406;-55
2022/06/03 02:23:57;;;;;;;5.72;2.72;;;;;;;10.62;72.78;99549.94;5018657;28;20029;-55
2022/06/03 02:26:41;;;;;;;3.60;2.60;;;;;;;10.65;72.53;99544.09;5034133;28;20048;-55
2022/06/03 02:32:30;;;;;;;4.90;2.55;;;;;;;10.50;73.22;99539.22;5050338;28;20046;-54
2022/06/03 02:35:01;;;;;;;7.10;3.10;;;;;;;10.31;74.04;99537.72;5070444;28;20394;-55
2022/06/03 02:38:02;;;;;;;4.65;2.70;;;;;;;10.17;74.48;99536.28;5045837;28;20029;-56
2022/06/03 02:41:01;;;;;;;4.90;2.90;;;;;;;10.06;75.96;99541.41;5056165;28;20040;-56
2022/06/03 02:43:35;;;;;;;5.63;2.75;;;;;;;9.93;75.58;99533.56;5068014;28;20093;-56
2022/06/03 02:46:39;;;;;;;7.40;2.70;;;;;;;9.98;75.39;99535.56;5072625;28;20143;-57
2022/06/03 02:49:13;;;;;;;3.42;2.67;;;;;;;9.92;76.94;99535.44;5044652;28;20493;-55
2022/06/03 02:51:57;;;;;;;6.45;2.50;;;;;;;9.91;75.89;99533.81;5069140;28;20033;-55
2022/06/03 02:54:47;;;;;;;3.95;2.50;;;;;;;9.84;76.45;99534.97;5063907;28;20089;-56
2022/06/03 02:57:31;;;;;;;5.03;2.90;;;;;;;9.71;76.37;99534.13;5068339;28;20025;-55
2022/06/03 03:00:15;;;;;;;5.68;2.50;;;;;;;9.48;77.17;99540.22;5066866;28;20261;-54
2022/06/03 03:02:49;;;;;;;3.70;2.63;;;;;;;9.31;78.91;99543.75;5048587;28;20129;-55
2022/06/03 03:05:54;;;;;;;5.00;2.83;;;;;;;9.34;79.60;99532.63;5070100;28;20028;-55
2022/06/03 03:08:50;;;;;;;4.15;2.50;;;;;;;9.31;79.13;99536.56;5014918;28;20056;-54
2022/06/03 03:11:57;;;;;;;6.63;3.13;;;;;;;9.68;77.45;99536.44;5069430;28;20025;-56
2022/06/03 03:14:59;;;;;;;4.20;3.03;;;;;;;9.85;77.05;99533.91;4984737;28;20037;-56
2022/06/03 03:17:42;;;;;;;3.70;2.72;;;;;;;9.71;77.91;99533.31;4980403;28;20034;-56
2022/06/03 03:20:16;;;;;;;4.68;2.67;;;;;;;9.88;76.78;99533.44;5033819;28;20044;-56
2022/06/03 03:22:51;;;;;;;6.72;3.05;;;;;;;10.00;75.87;99526.25;5068457;28;20119;-56
2022/06/03 03:25:29;;;;;;;4.60;2.70;;;;;;;9.91;76.07;99524.97;5069167;28;20506;-55
2022/06/03 03:28:16;;;;;;;4.07;2.72;;;;;;;9.78;76.76;99533.19;5066531;28;20044;-56
2022/06/03 03:30:52;;;;;;;4.03;2.92;;;;;;;9.78;76.30;99528.66;5065395;28;20036;-56
2022/06/03 03:33:51;;;;;;;4.07;2.90;;;;;;;9.75;76.41;99530.97;5033737;28;20028;-56
2022/06/03 03:36:43;;;;;;;4.60;2.92;;;;;;;9.94;76.47;99529.88;5068184;28;20028;-56
2022/06/03 03:39:39;;;;;;;4.18;2.85;;;;;;;9.82;76.18;99534.38;5041695;28;20043;-56
2022/06/03 03:42:39;;;;;;;7.35;3.17;;;;;;;10.19;75.56;99531.53;5065821;28;20059;-56
2022/06/03 03:45:19;;;;;;;4.10;2.85;;;;;;;11.14;71.55;99535.72;5054018;28;20040;-56
2022/06/03 03:48:06;;;;;;;4.40;2.90;;;;;;;11.47;69.86;99535.00;5063352;28;20029;-56
2022/06/03 03:50:54;;;;;;;4.93;2.95;;;;;;;12.58;65.73;99534.41;5069523;28;20044;-56
2022/06/03 03:53:29;;;;;;;4.47;2.75;;;;;;;12.38;66.90;99534.09;5064809;28;20025;-55
2022/06/03 03:56:33;;;;;;;4.63;2.45;;;;;;;11.72;68.01;99525.78;5069098;28;20016;-55
2022/06/03 03:59:07;;;;;;;3.75;2.70;;;;;;;12.08;66.50;99524.50;4996864;28;20045;-54
2022/06/03 04:01:53;;;;;;;5.47;3.30;;;;;;;11.21;70.04;99520.31;5069677;28;20032;-55
2022/06/03 04:04:37;;;;;;;6.10;2.72;;;;;;;12.16;68.28;99520.63;5067264;28;20070;-53
2022/06/03 04:07:37;;;;;;;6.05;2.58;;;;;;;13.92;62.40;99515.94;5066166;28;20044;-54
2022/06/03 04:10:24;;;;;;;4.35;2.70;;;;;;;15.08;57.33;99516.91;5064566;28;20024;-54
2022/06/03 04:12:56;;;;;;;6.25;2.83;;;;;;;15.29;56.23;99512.38;5066612;28;20041;-56
2022/06/03 04:15:30;;;;;;;6.82;2.50;;;;;;;16.08;54.10;99529.25;5067731;28;20024;-54
2022/06/03 04:18:17;;;;;;;3.40;2.35;;;;;;;15.25;55.40;99519.41;5067197;28;20058;-54
2022/06/03 04:20:58;;;;;;;4.68;2.60;;;;;;;14.78;58.66;99525.69;5065695;28;20040;-54
2022/06/03 04:23:52;;;;;;;4.82;2.53;;;;;;;16.85;52.33;99526.41;5033700;28;20091;-54
2022/06/03 04:26:38;;;;;;;5.57;2.28;;;;;;;17.63;50.00;99522.19;5057275;28;20078;-54
2022/06/03 04:29:35;;;;;;;4.75;2.45;;;;;;;17.16;50.20;99531.69;5068628;28;20542;-54
2022/06/03 04:32:22;;;;;;;3.63;2.38;;;;;;;17.31;51.41;99517.25;5066371;28;20040;-55
2022/06/03 04:35:09;;;;;;;5.95;2.55;;;;;;;18.56;47.34;99514.88;5049743;28;20112;-54
2022/06/03 04:37:40;;;;;;;5.57;2.63;;;;;;;18.88;46.44;99513.47;5067691;28;20808;-53
2022/06/03 04:40:24;;;;;;;3.75;2.40;;;;;;;19.79;45.12;99524.19;5059064;28;20389;-55
2022/06/03 04:42:57;;;;;;;7.72;2.55;;;;;;;19.29;45.82;99512.94;5060957;28;20089;-54
2022/06/03 04:45:32;;;;;;;3.22;2.22;;;;;;;20.27;43.66;99518.50;5057073;28;20482;-55
2022/06/03 04:48:22;;;;;;;4.65;2.63;;;;;;;18.83;46.39;99508.91;5049671;28;20729;-53
2022/06/03 04:51:11;;;;;;;;;;;;;;;20.70;43.12;99515.53;5039474;28;20032;-55
2022/06/03 04:53:55;;;;;;;7.25;3.00;;;;;;;20.84;42.48;99516.34;5028940;28;20330;-53
2022/06/03 04:56:48;;;;;;;5.50;2.30;;;;;;;20.89;42.63;99510.78;5068626;28;20027;-54
2022/06/03 05:00:11;;;;;;;4.43;2.60;;;;;;;21.80;40.75;99511.00;5044036;28;20029;-55
2022/06/03 05:02:54;;;;;;;5.40;2.40;;;;;;;21.23;41.57;99517.69;4985154;28;20117;-54
2022/06/03 05:05:59;;;;;;;5.82;3.33;;;;;;;22.61;39.45;99517.09;4985962;28;20034;-54
2022/06/03 05:08:47;;;;;;;11.73;2.50;;;;;;;20.76;42.61;99511.59;5039790;28;20040;-56
2022/06/03 05:11:31;;;;;;;3.58;2.28;;;;;;;20.19;43.78;99505.56;5067215;28;20039;-55
2022/06/03 05:14:31;;;;;;;4.10;2.10;;;;;;;20.61;43.54;99501.00;5067342;28;20028;-55
2022/06/03 05:17:11;;;;;;;5.13;2.17;;;;;;;21.09;42.96;99501.38;5053937;28;20063;-54
2022/06/03 05:19:45;;;;;;;8.25;2.20;;;;;;;21.78;42.07;99494.13;5047205;28;20243;-55
2022/06/03 05:22:32;;;;;;;4.93;2.20;;;;;;;22.83;39.81;99493.53;5058762;28;20333;-54
2022/06/03 05:25:19;;;;;;;8.60;2.20;;;;;;;20.67;43.83;99492.44;5030874;28;20068;-55
2022/06/03 05:28:06;;;;;;;5.57;2.55;;;;;;;20.90;43.55;99490.59;5061881;28;20054;-55
2022/06/03 05:30:53;;;;;;;5.90;2.30;;;;;;;21.63;42.14;99487.13;5060837;28;20094;-55
2022/06/03 05:33:43;;;;;;;4.90;2.33;;;;;;;21.31;42.81;99486.97;5060432;28;20028;-54
2022/06/03 05:36:33;;;;;;;6.55;2.40;;;;;;;22.32;41.34;99489.50;5059359;28;20032;-54
2022/06/03 05:39:49;;;;;;;5.40;2.70;;;;;;;22.98;39.87;99481.38;5037172;28;20157;-54
2022/06/03 05:42:27;;;;;;;9.90;2.50;;;;;;;22.86;39.73;99478.44;4987222;28;20045;-55
2022/06/03 05:44:58;;;;;;;8.93;2.20;;;;;;;23.50;39.52;99480.63;4968528;28;20045;-54
2022/06/03 05:47:47;;;;;;;7.85;2.40;;;;;;;23.43;40.22;99476.41;5037438;28;20048;-55
2022/06/03 05:50:17;;;;;;;5.43;2.03;;;;;;;22.54;40.72;99477.69;5060344;28;20036;-54
2022/06/03 05:53:11;;;;;;;7.88;2.30;;;;;;;23.85;37.22;99474.00;5062263;28;20257;-55
2022/06/03 05:56:01;;;;;;;3.08;2.00;;;;;;;23.87;36.25;99469.00;5042210;28;20040;-54
2022/06/03 05:58:31;;;;;;;5.10;2.10;;;;;;;24.56;34.84;99477.34;5049686;28;20036;-55
2022/06/03 06:01:25;;;;;;;5.78;2.22;;;;;;;24.23;35.31;99486.16;5030003;28;20126;-54
2022/06/03 06:03:59;;;;;;;5.38;1.95;;;;;;;23.14;37.06;99484.44;5067883;28;20028;-55
2022/06/03 06:06:46;;;;;;;11.18;2.58;;;;;;;23.18;37.34;99488.16;5037243;28;20489;-55
2022/06/03 06:09:24;;;;;;;9.15;2.47;;;;;;;23.17;37.20;99492.81;5043889;28;20040;-54
2022/06/03 06:12:11;;;;;;;6.05;2.70;;;;;;;23.48;38.27;99495.41;5027824;28;20489;-55
2022/06/03 06:14:55;;;;;;;4.38;2.28;;;;;;;25.34;34.63;99491.41;5022983;28;20468;-55
2022/06/03 06:17:31;;;;;;;8.18;2.10;;;;;;;25.63;34.03;99483.41;5052284;28;20439;-54
2022/06/03 06:19:59;;;;;;;12.27;2.40;;;;;;;25.63;34.04;99489.72;5044937;28;20029;-54
2022/06/03 06:22:33;;;;;;;5.67;2.20;;;;;;;26.33;33.18;99478.81;5011305;28;20629;-55
2022/06/03 06:25:18;;;;;;;8.65;2.15;;;;;;;26.03;33.34;99479.03;5030314;28;20033;-55
2022/06/03 06:28:04;;;;;;;8.43;2.00;;;;;;;27.28;31.79;99484.19;5037995;28;20075;-55
2022/06/03 06:30:37;;;;;;;7.70;2.03;;;;;;;26.82;32.53;99484.38;5033059;28;20061;-54
2022/06/03 06:33:17;;;;;;;4.45;2.00;;;;;;;27.70;31.14;99487.38;5051270;28;20031;-55
2022/06/03 06:36:17;;;;;;;8.10;1.92;;;;;;;26.55;32.47;99485.06;5051424;28;20033;-54
2022/06/03 06:39:09;;;;;;;9.43;2.10;;;;;;;26.23;33.55;99487.50;5029827;28;20033;-55
2022/06/03 06:41:43;;;;;;;8.20;2.05;;;;;;;25.13;35.29;99477.66;5043086;28;20040;-54
2022/06/03 06:44:10;;;;;;;7.57;1.95;;;;;;;26.79;32.67;99478.78;5050771;28;20025;-55
2022/06/03 06:47:13;;;;;;;5.20;2.20;;;;;;;25.44;34.75;99479.25;5048669;28;20033;-55
2022/06/03 06:49:58;;;;;;;8.75;2.20;;;;;;;26.43;33.17;99486.66;5032224;28;20631;-54
2022/06/03 06:52:29;;;;;;;6.18;2.28;;;;;;;25.47;34.16;99484.03;5049081;28;20144;-55
2022/06/03 06:55:03;;;;;;;6.07;2.10;;;;;;;24.62;36.27;99487.81;5044062;28;20127;-55
2022/06/03 06:57:36;;;;;;;8.38;1.95;;;;;;;25.36;34.75;99489.16;5049696;28;20033;-55
2022/06/03 07:00:29;;;;;;;7.13;1.90;;;;;;;26.08;32.71;99482.69;5026178;28;20103;-54
2022/06/03 07:03:24;;;;;;;4.55;1.70;;;;;;;27.75;29.79;99478.06;5028575;28;20051;-55
2022/06/03 07:05:59;;;;;;;5.43;1.85;;;;;;;27.55;30.81;99485.38;5022367;28;20132;-55
2022/06/03 07:08:32;;;;;;;8.45;2.00;;;;;;;27.06;32.05;99480.00;5031824;28;20402;-54
2022/06/03 07:11:05;;;;;;;4.50;1.75;;;;;;;25.95;33.68;99476.34;5040178;28;20063;-56
2022/06/03 07:13:51;;;;;;;5.78;1.80;;;;;;;26.33;31.53;99478.81;5024867;28;20037;-55
2022/06/03 07:19:49;;;;;;;5.00;1.60;;;;;;;26.02;32.77;99466.41;5025899;28;20048;-55
2022/06/03 07:22:24;;;;;;;2.88;1.60;;;;;;;28.08;30.36;99472.31;5047421;28;20027;-55
2022/06/03 07:24:58;;;;;;;4.97;1.80;;;;;;;27.89;29.81;99470.22;5046684;28;20029;-55
2022/06/03 07:27:36;;;;;;;9.23;1.73;;;;;;;27.82;30.46;99458.22;5050210;28;20111;-54
2022/06/03 07:30:08;;;;;;;7.05;1.90;;;;;;;27.51;30.42;99446.75;5022257;28;20021;-54
2022/06/03 07:32:47;;;;;;;6.72;1.70;;;;;;;26.79;31.35;99443.81;5044232;28;20030;-54
2022/06/03 07:35:22;;;;;;;3.67;1.75;;;;;;;24.93;34.12;99437.31;5004849;28;20037;-52
2022/06/03 07:37:51;;;;;;;8.35;1.95;;;;;;;26.07;32.37;99423.41;5000115;28;20071;-55
2022/06/03 07:40:24;;;;;;;5.90;1.80;;;;;;;25.82;33.22;99428.81;5048058;28;20029;-54
2022/06/03 07:43:11;;;;;;;6.97;1.90;;;;;;;26.13;32.96;99438.50;5026434;28;20033;-55
2022/06/03 07:45:43;;;;;;;5.38;2.03;;;;;;;25.55;33.57;99436.50;5043773;28;20079;-54
2022/06/03 07:48:14;;;;;;;11.00;2.17;;;;;;;27.05;31.38;99435.16;5025985;28;20032;-54
2022/06/03 07:51:04;;;;;;;5.10;1.80;;;;;;;27.66;30.78;99433.41;5031388;28;20087;-55
2022/06/03 07:54:05;;;;;;;5.47;1.80;;;;;;;25.52;33.94;99426.22;5029386;28;20036;-54
2022/06/03 07:56:31;;;;;;;3.92;1.85;;;;;;;26.20;32.92;99423.06;5045701;28;20021;-54
2022/06/03 07:58:59;;;;;;;4.63;1.92;;;;;;;25.98;33.15;99424.31;5042199;28;20483;-53
2022/06/03 08:01:28;;;;;;;6.57;1.98;;;;;;;25.70;33.54;99418.59;5048369;28;20124;-53
2022/06/03 08:03:53;;;;;;;3.38;1.80;;;;;;;26.12;33.61;99420.44;5048506;28;20139;-54
2022/06/03 08:10:56;;;;;;;4.35;1.70;;;;;;;27.14;32.06;99410.28;5047512;28;20519;-54
2022/06/03 08:12:11;;;;;;;3.55;1.85;;;;;;;22.16;38.40;99409.88;5049382;28;20120;-54
2022/06/03 08:14:36;;;;;;;8.23;2.22;;;;;;;23.27;37.17;99406.16;5021834;28;20029;-51
2022/06/03 08:17:06;;;;;;;5.05;2.00;;;;;;;24.52;35.11;99411.47;5045807;28;20025;-54
2022/06/03 08:19:32;;;;;;;5.20;2.10;;;;;;;26.09;33.63;99418.38;5027761;28;20403;-54
2022/06/03 08:21:59;;;;;;;5.03;1.90;;;;;;;26.03;33.40;99404.88;5031150;28;20418;-55
2022/06/03 08:24:27;;;;;;;4.72;1.77;;;;;;;25.45;34.09;99406.75;5015031;28;20028;-54
2022/06/03 08:26:57;;;;;;;7.47;1.70;;;;;;;24.90;35.54;99410.56;5027975;28;20044;-54
2022/06/03 08:29:40;;;;;;;3.58;1.90;;;;;;;25.21;34.62;99412.13;5020830;28;20033;-54
2022/06/03 08:32:07;;;;;;;7.97;2.20;;;;;;;26.33;33.51;99407.38;5047960;28;20037;-55
2022/06/03 08:34:37;;;;;;;7.25;1.85;;;;;;;24.87;36.25;99414.00;5024284;28;20219;-54
2022/06/03 08:37:02;;;;;;;5.93;2.40;;;;;;;23.80;36.48;99408.50;5046768;28;20040;-54
2022/06/03 08:39:30;;;;;;;6.95;2.00;;;;;;;25.49;35.44;99404.94;5047889;28;20032;-54
2022/06/03 08:42:36;;;;;;;6.88;2.20;;;;;;;26.39;34.03;99400.53;5029248;28;20986;-54
2022/06/03 08:45:04;;;;;;;8.18;2.20;;;;;;;25.05;35.44;99399.00;5038658;28;20174;-53
2022/06/03 08:47:38;;;;;;;8.75;2.10;;;;;;;23.93;38.04;99400.41;5045137;28;20072;-54
2022/06/03 08:50:14;;;;;;;7.53;1.92;;;;;;;22.86;39.56;99399.19;5024311;28;20068;-54
2022/06/03 08:52:49;;;;;;;3.92;2.10;;;;;;;22.66;39.78;99387.72;5018611;28;20028;-54
2022/06/03 08:55:50;;;;;;;6.95;2.30;;;;;;;23.95;38.05;99393.47;5028814;28;20071;-54
2022/06/03 08:58:41;;;;;;;7.70;2.20;;;;;;;24.08;37.49;99392.44;5042866;28;20043;-53
2022/06/03 09:01:29;;;;;;;8.07;2.20;;;;;;;23.65;38.13;99393.38;5021246;28;20040;-53
2022/06/03 09:04:17;;;;;;;5.97;2.10;;;;;;;23.02;39.56;99392.97;5021763;28;20609;-53
2022/06/03 09:06:51;;;;;;;5.68;2.30;;;;;;;23.67;38.66;99391.13;5028187;28;20048;-52
2022/06/03 09:09:39;;;;;;;3.60;2.00;;;;;;;23.83;37.93;99385.16;5061913;28;20047;-52
2022/06/03 09:12:23;;;;;;;6.70;2.17;;;;;;;23.62;39.05;99385.81;5042409;28;20056;-53
2022/06/03 09:14:49;;;;;;;6.25;2.00;;;;;;;24.66;37.30;99378.31;5060358;28;20033;-54
2022/06/03 09:17:33;;;;;;;3.50;1.95;;;;;;;25.03;36.21;99370.31;5064230;28;20029;-54
2022/06/03 09:20:01;;;;;;;4.28;2.10;;;;;;;23.45;38.92;99375.72;5063842;28;20024;-54
2022/06/03 09:22:28;;;;;;;9.32;2.35;;;;;;;24.29;38.11;99367.09;5030392;28;20063;-55
2022/06/03 09:24:55;;;;;;;4.25;2.17;;;;;;;25.47;36.58;99368.00;5057328;28;20356;-54
2022/06/03 09:27:21;;;;;;;10.45;2.30;;;;;;;24.43;37.54;99366.84;5063120;28;20028;-54
2022/06/03 09:29:48;;;;;;;6.30;1.90;;;;;;;25.08;37.13;99359.94;5048929;28;20036;-53
2022/06/03 09:32:16;;;;;;;10.52;2.35;;;;;;;23.85;39.20;99361.78;5036224;28;20032;-54
2022/06/03 09:34:47;;;;;;;9.43;2.50;;;;;;;25.48;35.79;99364.91;5044714;28;20402;-51
2022/06/03 09:37:15;;;;;;;6.60;2.30;;;;;;;25.49;35.82;99365.75;5049046;28;20056;-53
2022/06/03 09:39:42;;;;;;;7.90;2.40;;;;;;;24.28;38.78;99374.47;5066642;28;20063;-53
2022/06/03 09:42:07;;;;;;;4.88;2.53;;;;;;;23.53;39.46;99373.28;5049374;28;20502;-53
2022/06/03 09:44:33;;;;;;;7.70;2.30;;;;;;;22.41;42.47;99378.38;5065357;28;20570;-54
2022/06/03 09:47:03;;;;;;;6.97;2.50;;;;;;;25.17;38.07;99377.16;5066931;28;20072;-53
2022/06/03 09:49:29;;;;;;;6.35;2.22;;;;;;;26.86;35.03;99378.06;5062191;28;20124;-53
2022/06/03 09:52:02;;;;;;;7.70;2.40;;;;;;;27.09;34.54;99366.53;5029876;28;20108;-52
2022/06/03 09:54:45;;;;;;;5.78;2.42;;;;;;;27.03;35.42;99365.16;5067308;28;20696;-54
2022/06/03 09:57:21;;;;;;;7.03;2.30;;;;;;;25.67;35.73;99377.31;5045157;28;20120;-54
2022/06/03 10:00:00;;;;;;;8.27;2.35;;;;;;;26.82;35.28;99371.66;5056718;28;20029;-54
2022/06/03 10:02:26;;;;;;;7.38;2.75;;;;;;;27.37;34.38;99369.28;5044125;28;20045;-53
2022/06/03 10:04:51;;;;;;;7.30;2.40;;;;;;;26.28;35.38;99376.59;5024114;28;20037;-53
2022/06/03 10:07:17;;;;;;;6.18;2.30;;;;;;;25.34;37.03;99365.22;5039536;28;20064;-51
2022/06/03 10:12:52;;;;;;;5.13;2.00;;;;;;;27.30;34.65;99358.88;5039755;28;20044;-53
2022/06/03 10:15:43;;;;;;;8.88;2.53;;;;;;;27.64;33.42;99356.66;5064300;28;20033;-54
2022/06/03 10:18:29;;;;;;;6.53;2.33;;;;;;;28.48;32.17;99360.28;5062556;28;20106;-55
2022/06/03 10:20:58;;;;;;;8.35;2.28;;;;;;;27.57;35.13;99361.16;5053230;28;20037;-53
2022/06/03 10:23:27;;;;;;;6.60;2.50;;;;;;;26.08;35.76;99359.09;5047570;28;20032;-54
2022/06/03 10:25:58;;;;;;;6.32;2.47;;;;;;;27.16;34.73;99363.97;5065383;28;20060;-53
2022/06/03 10:28:23;;;;;;;5.57;2.40;;;;;;;27.19;34.16;99371.56;5049773;28;20060;-54
2022/06/03 10:30:58;;;;;;;5.78;2.50;;;;;;;27.31;34.27;99355.00;5050267;28;20486;-53
2022/06/03 10:33:24;;;;;;;11.95;2.60;;;;;;;26.70;34.81;99351.63;5066323;28;20041;-53
2022/06/03 10:35:52;;;;;;;7.93;2.67;;;;;;;26.96;35.75;99351.19;5064632;28;20177;-54
2022/06/03 10:38:20;;;;;;;7.43;2.33;;;;;;;27.29;34.33;99351.00;5066573;28;20021;-53
2022/06/03 10:40:50;;;;;;;6.78;2.67;;;;;;;28.20;33.89;99346.63;5051951;28;20506;-54
2022/06/03 10:43:32;;;;;;;8.48;2.90;;;;;;;26.08;36.43;99340.66;5071186;28;20514;-52
2022/06/03 10:46:13;;;;;;;4.63;2.40;;;;;;;26.23;36.79;99329.00;5071176;28;20554;-54
2022/06/03 10:48:38;;;;;;;5.65;2.30;;;;;;;25.98;37.48;99327.41;5068440;28;20036;-53
2022/06/03 10:51:18;;;;;;;7.68;3.22;;;;;;;23.99;40.78;99316.97;5071256;28;20035;-53
2022/06/03 11:02:29;;;;;;;17.80;3.10;;;;;;;25.76;37.93;99304.72;5068132;28;20682;-54
2022/06/03 11:05:10;;;;;;;9.73;2.72;;;;;;;26.28;37.07;99303.22;5064360;28;20025;-53
2022/06/03 11:07:36;;;;;;;9.57;2.50;;;;;;;26.81;36.22;99301.31;5062896;28;20060;-52
2022/06/03 11:10:08;;;;;;;9.75;2.67;;;;;;;25.78;38.11;99296.13;5072035;28;20028;-56
2022/06/03 11:12:34;;;;;;;9.93;2.78;;;;;;;24.91;39.60;99288.81;5069864;28;20462;-54
2022/06/03 11:14:59;;;;;;;8.38;2.75;;;;;;;26.64;37.18;99296.09;5069459;28;20024;-53
2022/06/03 11:17:36;;;;;;;8.75;2.95;;;;;;;26.40;38.23;99299.66;5051974;28;20040;-53
2022/06/03 11:20:03;;;;;;;8.57;2.90;;;;;;;25.52;37.68;99313.72;5066359;28;20108;-51
2022/06/03 11:22:36;;;;;;;6.68;3.17;;;;;;;24.32;40.66;99304.22;5034752;28;20040;-54
2022/06/03 11:25:26;;;;;;;8.73;2.80;;;;;;;22.86;43.69;99293.41;5051232;28;20029;-53
2022/06/03 11:27:56;;;;;;;9.82;2.95;;;;;;;24.64;41.24;99293.72;5026586;28;20112;-53
2022/06/03 11:30:33;;;;;;;5.45;2.70;;;;;;;24.05;40.94;99300.03;5040300;28;20094;-53
2022/06/03 11:33:10;;;;;;;10.20;3.13;;;;;;;23.84;42.06;99294.53;5069915;28;20383;-54
2022/06/03 11:35:41;;;;;;;4.50;2.60;;;;;;;23.98;42.31;99291.53;5051018;28;20029;-54
2022/06/03 11:38:07;;;;;;;6.57;2.50;;;;;;;23.82;41.80;99290.50;5052567;28;20025;-55
2022/06/03 11:40:35;;;;;;;11.02;2.90;;;;;;;24.48;41.33;99288.03;5037388;28;20127;-53
2022/06/03 11:43:04;;;;;;;13.45;3.17;;;;;;;24.83;40.45;99284.22;5047611;28;20078;-52
2022/06/03 11:45:56;;;;;;;8.18;2.53;;;;;;;25.40;39.28;99275.28;5051282;28;20085;-55
2022/06/03 11:48:37;;;;;;;8.68;2.90;;;;;;;24.45;41.20;99285.97;5052873;28;20425;-56
2022/06/03 11:51:02;;;;;;;8.50;3.03;;;;;;;24.79;40.36;99277.78;5041855;28;20050;-54
2022/06/03 11:53:30;;;;;;;9.88;2.83;;;;;;;24.78;40.34;99278.94;5040248;28;20036;-54
2022/06/03 11:56:00;;;;;;;4.65;2.63;;;;;;;24.06;41.11;99284.41;5051909;28;20036;-54
2022/06/03 11:59:01;;;;;;;7.57;2.80;;;;;;;25.16;39.81;99279.56;5051117;28;20475;-53
2022/06/03 12:01:40;;;;;;;11.55;2.72;;;;;;;25.44;40.27;99272.66;5040075;28;20037;-54
2022/06/03 12:04:12;;;;;;;4.80;2.60;;;;;;;25.98;38.60;99273.28;5044280;28;20028;-55
2022/06/03 12:06:44;;;;;;;12.55;2.95;;;;;;;25.91;38.28;99267.59;5068823;28;20078;-55
2022/06/03 12:09:19;;;;;;;5.85;2.53;;;;;;;25.12;40.17;99273.13;5053064;28;20107;-53
2022/06/03 12:14:35;;;;;;;7.35;2.88;;;;;;;25.03;40.31;99277.88;5054431;28;20402;-53
2022/06/03 12:17:21;;;;;;;9.75;2.80;;;;;;;25.23;40.47;99269.97;5033311;28;20025;-52
2022/06/03 12:19:49;;;;;;;7.97;3.08;;;;;;;25.30;40.30;99264.75;5057578;28;20524;-53
2022/06/03 12:22:20;;;;;;;24.75;3.50;;;;;;;26.13;39.15;99269.03;5050641;28;20031;-60
2022/06/03 12:24:51;;;;;;;5.03;2.80;;;;;;;24.92;40.71;99268.50;5067946;28;20032;-55
2022/06/03 12:27:23;;;;;;;5.43;2.45;;;;;;;24.95;41.37;99265.06;5038353;28;20025;-53
2022/06/03 12:30:09;;;;;;;12.55;3.05;;;;;;;25.45;40.92;99264.09;5045113;28;20037;-56
2022/06/03 12:32:35;;;;;;;6.93;2.90;;;;;;;24.73;41.52;99258.81;5066376;28;20378;-57
2022/06/03 12:35:38;;;;;;;8.68;3.03;;;;;;;26.19;39.03;99253.13;5034395;28;20028;-55
2022/06/03 12:38:22;;;;;;;14.45;3.05;;;;;;;26.33;39.56;99266.47;5051901;28;20726;-55
2022/06/03 12:40:50;;;;;;;8.77;2.88;;;;;;;26.82;38.02;99255.38;5065092;28;20040;-54
2022/06/03 12:43:28;;;;;;;5.90;2.50;;;;;;;26.96;38.02;99255.78;5053651;28;20033;-55
2022/06/03 12:46:10;;;;;;;6.05;2.50;;;;;;;24.96;40.89;99255.69;5066738;28;20493;-54
2022/06/03 12:48:47;;;;;;;6.93;2.88;;;;;;;25.50;40.73;99258.38;5040961;28;20403;-54
2022/06/03 12:51:28;;;;;;;10.38;2.70;;;;;;;25.82;40.52;99258.63;5063606;28;20024;-55
2022/06/03 12:54:06;;;;;;;7.20;2.60;;;;;;;26.21;40.17;99257.13;5042779;28;20082;-55
2022/06/03 12:56:42;;;;;;;10.77;2.63;;;;;;;25.78;40.96;99263.19;5043342;28;20136;-54
2022/06/03 12:59:07;;;;;;;5.88;3.00;;;;;;;25.04;42.42;99252.09;5047206;28;20531;-54
2022/06/03 13:02:09;;;;;;;7.95;3.05;;;;;;;23.64;44.26;99276.06;5066502;28;20116;-54